createdAt,value
2023-04-03T00:03:03.626Z,3.20
2023-04-03T00:06:28.145Z,3.10
2023-04-03T00:09:51.775Z,3.10
2023-04-03T00:13:16.738Z,3.00
2023-04-03T00:16:41.982Z,3.00
2023-04-03T00:20:07.883Z,3.00
2023-04-03T00:23:31.588Z,2.90
2023-04-03T00:26:55.681Z,2.90
2023-04-03T00:30:21.826Z,2.80
2023-04-03T00:33:49.126Z,2.80
2023-04-03T00:37:13.828Z,2.80
2023-04-03T00:40:43.616Z,2.70
2023-04-03T00:44:44.613Z,2.70
2023-04-03T00:48:11.940Z,2.70
2023-04-03T00:51:43.085Z,2.60
2023-04-03T00:55:11.452Z,2.50
2023-04-03T00:58:39.419Z,2.50
2023-04-03T01:02:05.733Z,2.50
2023-04-03T01:05:31.977Z,2.50
2023-04-03T01:08:58.650Z,2.40
2023-04-03T01:12:25.425Z,2.30
2023-04-03T01:15:49.284Z,2.30
2023-04-03T01:19:17.586Z,2.30
2023-04-03T01:22:48.619Z,2.20
2023-04-03T01:26:14.404Z,2.10
2023-04-03T01:29:39.765Z,2.20
2023-04-03T01:33:05.168Z,2.10
2023-04-03T01:36:31.518Z,2.10
2023-04-03T01:40:00.311Z,2.00
2023-04-03T01:43:24.834Z,2.00
2023-04-03T01:46:48.599Z,2.00
2023-04-03T01:50:14.154Z,1.90
2023-04-03T01:53:38.836Z,1.90
2023-04-03T01:57:02.749Z,1.80
2023-04-03T02:00:27.594Z,1.80
2023-04-03T02:03:52.815Z,1.80
2023-04-03T02:07:18.121Z,1.80
2023-04-03T02:10:42.778Z,1.70
2023-04-03T02:14:09.058Z,1.70
2023-04-03T02:17:33.856Z,1.70
2023-04-03T02:20:57.446Z,1.70
2023-04-03T02:24:23.278Z,1.70
2023-04-03T02:27:50.215Z,1.60
2023-04-03T02:31:14.909Z,1.60
2023-04-03T02:34:40.772Z,1.60
2023-04-03T02:38:06.782Z,1.60
2023-04-03T02:41:36.023Z,1.50
2023-04-03T02:45:02.960Z,1.50
2023-04-03T02:48:27.110Z,1.50
2023-04-03T02:51:51.847Z,1.50
2023-04-03T02:55:17.259Z,1.40
2023-04-03T02:58:45.147Z,1.40
2023-04-03T03:02:09.859Z,1.40
2023-04-03T03:05:36.967Z,1.40
2023-04-03T03:09:03.133Z,1.30
2023-04-03T03:12:26.876Z,1.30
2023-04-03T03:15:52.469Z,1.30
2023-04-03T03:19:16.900Z,1.20
2023-04-03T03:22:42.307Z,1.20
2023-04-03T03:26:09.900Z,1.20
2023-04-03T03:29:33.865Z,1.10
2023-04-03T03:33:02.697Z,1.00
2023-04-03T03:36:30.326Z,0.90
2023-04-03T03:39:54.943Z,0.80
2023-04-03T03:43:26.662Z,0.80
2023-04-03T03:46:53.007Z,0.80
2023-04-03T03:50:18.436Z,0.80
2023-04-03T03:53:42.970Z,0.70
2023-04-03T03:57:13.946Z,0.70
2023-04-03T04:00:37.952Z,0.70
2023-04-03T04:04:01.958Z,0.60
2023-04-03T04:07:30.358Z,0.60
2023-04-03T04:10:56.151Z,0.60
2023-04-03T04:14:21.514Z,0.70
2023-04-03T04:17:46.105Z,0.60
2023-04-03T04:21:10.024Z,0.60
2023-04-03T04:24:38.547Z,0.60
2023-04-03T04:28:04.270Z,0.50
2023-04-03T04:31:29.086Z,0.40
2023-04-03T04:34:53.930Z,0.30
2023-04-03T04:38:17.810Z,0.30
2023-04-03T04:41:46.600Z,0.30
2023-04-03T04:45:15.832Z,0.30
2023-04-03T04:48:43.148Z,0.40
2023-04-03T04:52:08.958Z,0.40
2023-04-03T04:55:34.000Z,0.30
2023-04-03T04:59:00.236Z,0.30
2023-04-03T05:02:25.201Z,0.30
2023-04-03T05:05:49.890Z,0.30
2023-04-03T05:09:14.029Z,0.30
2023-04-03T05:12:39.952Z,0.30
2023-04-03T05:16:06.049Z,0.30
2023-04-03T05:19:30.478Z,0.30
2023-04-03T05:22:55.924Z,0.50
2023-04-03T05:26:20.192Z,1.10
2023-04-03T05:29:46.067Z,1.80
2023-04-03T05:33:17.461Z,2.30
2023-04-03T05:36:46.437Z,2.70
2023-04-03T05:40:11.982Z,3.20
2023-04-03T05:43:39.911Z,3.50
2023-04-03T05:47:05.959Z,3.70
2023-04-03T05:50:32.210Z,3.90
2023-04-03T05:54:02.916Z,4.00
2023-04-03T05:57:27.888Z,4.00
2023-04-03T06:00:52.211Z,4.30
2023-04-03T06:04:16.539Z,4.40
2023-04-03T06:07:42.327Z,4.40
2023-04-03T06:11:09.608Z,4.40
2023-04-03T06:14:33.347Z,4.20
2023-04-03T06:17:58.902Z,3.40
2023-04-03T06:21:22.666Z,3.00
2023-04-03T06:24:47.827Z,3.60
2023-04-03T06:28:11.976Z,4.00
2023-04-03T06:31:37.265Z,4.80
2023-04-03T06:35:01.169Z,5.80
2023-04-03T06:38:24.924Z,6.40
2023-04-03T06:41:50.237Z,6.70
2023-04-03T06:45:14.632Z,6.80
2023-04-03T06:48:38.427Z,6.60
2023-04-03T06:52:02.821Z,6.50
2023-04-03T06:55:27.003Z,7.00
2023-04-03T06:58:52.575Z,7.30
2023-04-03T07:02:16.174Z,8.20
2023-04-03T07:05:40.309Z,9.30
2023-04-03T07:09:04.781Z,10.20
2023-04-03T07:12:28.466Z,10.30
2023-04-03T07:15:53.578Z,10.00
2023-04-03T07:19:19.105Z,10.10
2023-04-03T07:22:42.946Z,9.80
2023-04-03T07:26:07.509Z,9.80
2023-04-03T07:29:31.991Z,10.20
2023-04-03T07:32:57.034Z,10.90
2023-04-03T07:36:23.402Z,10.30
2023-04-03T07:39:47.586Z,9.90
2023-04-03T07:43:11.157Z,9.10
2023-04-03T07:46:35.021Z,8.70
2023-04-03T07:50:00.293Z,9.40
2023-04-03T07:53:23.914Z,9.60
2023-04-03T07:56:47.900Z,9.00
2023-04-03T08:00:13.032Z,9.00
2023-04-03T08:03:38.362Z,9.10
2023-04-03T08:07:03.647Z,8.60
2023-04-03T08:10:27.312Z,9.30
2023-04-03T08:13:51.843Z,8.90
2023-04-03T08:17:16.441Z,10.10
2023-04-03T08:20:41.258Z,10.30
2023-04-03T08:24:06.845Z,9.10
2023-04-03T08:27:30.998Z,9.50
2023-04-03T08:30:55.145Z,9.30
2023-04-03T08:34:20.034Z,10.70
2023-04-03T08:37:44.033Z,11.70
2023-04-03T08:41:21.888Z,12.20
2023-04-03T08:44:54.363Z,11.90
2023-04-03T08:48:22.794Z,11.80
2023-04-03T08:51:51.917Z,11.80
2023-04-03T08:55:25.579Z,11.80
2023-04-03T08:58:59.794Z,11.30
2023-04-03T09:02:29.256Z,10.80
2023-04-03T09:05:57.410Z,11.70
2023-04-03T09:09:33.244Z,11.80
2023-04-03T09:13:03.594Z,12.10
2023-04-03T09:16:36.198Z,11.20
2023-04-03T09:20:09.545Z,10.10
2023-04-03T09:23:47.281Z,9.60
2023-04-03T09:27:13.126Z,9.90
2023-04-03T09:30:38.127Z,10.50
2023-04-03T09:34:07.714Z,11.30
2023-04-03T09:37:41.762Z,11.80
2023-04-03T09:41:08.707Z,11.80
2023-04-03T09:44:34.195Z,12.30
2023-04-03T09:48:15.466Z,11.80
2023-04-03T09:51:41.944Z,12.30
2023-04-03T09:55:10.121Z,11.40
2023-04-03T09:58:49.109Z,12.70
2023-04-03T10:02:36.939Z,11.10
2023-04-03T10:06:01.118Z,13.30
2023-04-03T10:09:28.247Z,12.80
2023-04-03T10:13:06.468Z,13.20
2023-04-03T10:16:38.376Z,13.60
2023-04-03T10:20:06.472Z,11.90
2023-04-03T10:23:39.855Z,10.20
2023-04-03T10:27:09.300Z,10.90
2023-04-03T10:30:42.590Z,11.30
2023-04-03T10:34:16.324Z,10.30
2023-04-03T10:37:58.483Z,10.10
2023-04-03T10:41:32.313Z,10.80
2023-04-03T10:45:17.117Z,10.60
2023-04-03T10:48:57.801Z,10.70
2023-04-03T10:52:25.905Z,10.60
2023-04-03T10:55:55.710Z,10.60
2023-04-03T10:59:27.150Z,9.60
2023-04-03T11:02:56.320Z,9.80
2023-04-03T11:06:25.442Z,9.90
2023-04-03T11:09:52.123Z,10.00
2023-04-03T11:13:18.251Z,9.90
2023-04-03T11:16:54.115Z,9.60
2023-04-03T11:20:28.568Z,8.90
2023-04-03T11:23:54.767Z,8.10
2023-04-03T11:27:23.551Z,7.60
2023-04-03T11:30:52.408Z,7.20
2023-04-03T11:34:28.891Z,7.30
2023-04-03T11:37:55.653Z,7.10
2023-04-03T11:41:25.669Z,7.10
2023-04-03T11:44:49.337Z,7.30
2023-04-03T11:48:46.415Z,7.20
2023-04-03T11:52:12.464Z,7.10
2023-04-03T11:55:58.103Z,7.40
2023-04-03T11:59:25.946Z,7.10
2023-04-03T12:02:54.401Z,7.40
2023-04-03T12:06:44.798Z,7.40
2023-04-03T12:10:30.921Z,7.60
2023-04-03T12:14:15.436Z,7.90
2023-04-03T12:17:39.088Z,8.10
2023-04-03T12:21:04.230Z,7.70
2023-04-03T12:24:29.365Z,7.50
2023-04-03T12:27:54.222Z,7.60
2023-04-03T12:31:19.671Z,7.80
2023-04-03T12:35:08.643Z,7.90
2023-04-03T12:38:49.947Z,7.90
2023-04-03T12:42:43.281Z,7.70
2023-04-03T12:46:16.921Z,7.80
2023-04-03T12:49:46.089Z,7.50
2023-04-03T12:53:15.484Z,7.60
2023-04-03T12:56:39.081Z,7.60
2023-04-03T13:00:20.492Z,7.80
2023-04-03T13:03:46.979Z,7.80
2023-04-03T13:07:23.652Z,7.90
2023-04-03T13:10:54.507Z,7.80
2023-04-03T13:14:20.810Z,7.90
2023-04-03T13:17:44.992Z,7.70
2023-04-03T13:21:17.576Z,7.50
2023-04-03T13:24:52.829Z,7.40
2023-04-03T13:28:21.108Z,7.40
2023-04-03T13:31:44.923Z,7.60
2023-04-03T13:35:27.669Z,7.30
2023-04-03T13:39:01.399Z,7.00
2023-04-03T13:42:30.501Z,7.30
2023-04-03T13:46:05.993Z,7.60
2023-04-03T13:49:39.619Z,7.80
2023-04-03T13:53:20.491Z,7.60
2023-04-03T13:56:47.302Z,7.50
2023-04-03T14:00:31.006Z,7.60
2023-04-03T14:03:57.838Z,7.60
2023-04-03T14:07:22.285Z,8.00
2023-04-03T14:10:46.016Z,8.00
2023-04-03T14:14:16.032Z,7.90
2023-04-03T14:17:41.372Z,8.00
2023-04-03T14:21:05.079Z,7.80
2023-04-03T14:24:29.452Z,8.00
2023-04-03T14:27:54.572Z,7.70
2023-04-03T14:31:19.042Z,7.80
2023-04-03T14:34:44.973Z,8.10
2023-04-03T14:38:22.142Z,8.00
2023-04-03T14:41:47.162Z,8.00
2023-04-03T14:45:13.893Z,7.80
2023-04-03T14:48:37.547Z,7.70
2023-04-03T14:52:02.488Z,7.70
2023-04-03T14:55:27.030Z,7.50
2023-04-03T14:58:51.602Z,7.50
2023-04-03T15:02:28.986Z,7.50
2023-04-03T15:05:52.724Z,7.60
2023-04-03T15:09:22.964Z,7.70
2023-04-03T15:12:47.758Z,7.60
2023-04-03T15:16:17.529Z,7.70
2023-04-03T15:19:41.779Z,7.70
2023-04-03T15:23:05.870Z,7.80
2023-04-03T15:26:31.553Z,7.80
2023-04-03T15:29:55.219Z,7.60
2023-04-03T15:33:18.922Z,7.50
2023-04-03T15:36:42.608Z,7.30
2023-04-03T15:40:08.503Z,7.50
2023-04-03T15:43:34.665Z,7.60
2023-04-03T15:46:58.235Z,7.60
2023-04-03T15:50:23.672Z,7.70
2023-04-03T15:53:47.266Z,7.70
2023-04-03T15:57:10.953Z,7.60
2023-04-03T16:00:37.639Z,7.70
2023-04-03T16:04:01.543Z,7.50
2023-04-03T16:07:25.074Z,7.30
2023-04-03T16:10:48.705Z,7.20
2023-04-03T16:14:12.549Z,7.20
2023-04-03T16:17:38.686Z,7.20
2023-04-03T16:21:02.664Z,7.10
2023-04-03T16:24:26.331Z,7.10
2023-04-03T16:27:49.900Z,7.30
2023-04-03T16:31:13.685Z,7.40
2023-04-03T16:34:38.936Z,7.50
2023-04-03T16:38:02.510Z,7.60
2023-04-03T16:41:26.195Z,7.60
2023-04-03T16:44:49.756Z,7.40
2023-04-03T16:48:14.925Z,7.30
2023-04-03T16:51:39.953Z,7.20
2023-04-03T16:55:03.610Z,7.10
2023-04-03T16:58:27.312Z,7.10
2023-04-03T17:01:51.040Z,7.00
2023-04-03T17:05:14.631Z,6.90
2023-04-03T17:08:39.566Z,7.00
2023-04-03T17:12:03.620Z,7.00
2023-04-03T17:15:27.404Z,7.00
2023-04-03T17:18:51.078Z,6.90
2023-04-03T17:22:16.432Z,6.90
2023-04-03T17:25:41.490Z,6.80
2023-04-03T17:29:05.630Z,6.80
2023-04-03T17:32:29.311Z,6.70
2023-04-03T17:35:53.154Z,6.60
2023-04-03T17:39:16.739Z,6.60
2023-04-03T17:42:41.891Z,6.50
2023-04-03T17:46:08.873Z,6.50
2023-04-03T17:49:33.317Z,6.40
2023-04-03T17:52:56.950Z,6.40
2023-04-03T17:56:23.029Z,6.30
2023-04-03T17:59:48.264Z,6.20
2023-04-03T18:03:11.817Z,6.10
2023-04-03T18:06:41.041Z,6.10
2023-04-03T18:10:06.268Z,6.10
2023-04-03T18:13:29.869Z,6.10
2023-04-03T18:16:57.220Z,6.00
2023-04-03T18:20:21.138Z,6.00
2023-04-03T18:23:48.179Z,5.90
2023-04-03T18:27:14.368Z,5.90
2023-04-03T18:30:38.122Z,5.90
2023-04-03T18:34:03.295Z,5.80
2023-04-03T18:37:28.148Z,5.80
2023-04-03T18:40:53.877Z,5.70
2023-04-03T18:44:21.646Z,5.70
2023-04-03T18:47:45.273Z,5.60
2023-04-03T18:51:11.511Z,5.50
2023-04-03T18:54:37.196Z,5.50
2023-04-03T18:58:00.759Z,5.40
2023-04-03T19:01:24.790Z,5.30
2023-04-03T19:04:48.969Z,5.20
2023-04-03T19:08:14.532Z,5.20
2023-04-03T19:11:38.244Z,5.10
2023-04-03T19:15:01.780Z,5.10
2023-04-03T19:18:25.524Z,5.00
2023-04-03T19:21:49.038Z,5.00
2023-04-03T19:25:14.333Z,4.90
2023-04-03T19:28:38.307Z,4.90
2023-04-03T19:32:02.268Z,4.80
2023-04-03T19:35:25.817Z,4.80
2023-04-03T19:38:49.454Z,4.70
2023-04-03T19:42:14.557Z,4.60
2023-04-03T19:45:38.427Z,4.60
2023-04-03T19:49:02.048Z,4.60
2023-04-03T19:52:25.871Z,4.60
2023-04-03T19:55:50.069Z,4.50
2023-04-03T19:59:16.223Z,4.40
2023-04-03T20:02:40.163Z,4.40
2023-04-03T20:06:05.066Z,4.30
2023-04-03T20:09:28.762Z,4.30
2023-04-03T20:12:52.343Z,4.20
2023-04-03T20:16:18.151Z,4.20
2023-04-03T20:19:42.555Z,4.20
2023-04-03T20:23:06.140Z,4.20
2023-04-03T20:26:31.806Z,4.20
2023-04-03T20:29:55.615Z,4.10
2023-04-03T20:33:21.319Z,4.10
2023-04-03T20:36:48.035Z,4.10
2023-04-03T20:40:13.980Z,4.00
2023-04-03T20:43:38.269Z,4.00
2023-04-03T20:47:01.775Z,3.90
2023-04-03T20:50:27.651Z,3.80
2023-04-03T20:53:51.938Z,3.80
2023-04-03T20:57:15.504Z,3.70
2023-04-03T21:00:39.312Z,3.70
2023-04-03T21:04:10.465Z,3.60
2023-04-03T21:08:11.558Z,3.60
2023-04-03T21:12:12.712Z,3.50
2023-04-03T21:15:48.824Z,3.40
2023-04-03T21:19:16.154Z,3.40
2023-04-03T21:22:43.547Z,3.40
2023-04-03T21:26:07.137Z,3.40
2023-04-03T21:29:31.622Z,3.40
2023-04-03T21:32:56.694Z,3.30
2023-04-03T21:36:22.078Z,3.30
2023-04-03T21:39:45.936Z,3.20
2023-04-03T21:43:09.541Z,3.20
2023-04-03T21:46:33.146Z,3.20
2023-04-03T21:49:57.027Z,3.10
2023-04-03T21:53:22.429Z,3.10
2023-04-03T21:56:48.220Z,3.00
2023-04-03T22:00:14.712Z,3.00
2023-04-03T22:03:38.566Z,2.90
2023-04-03T22:07:03.530Z,2.90
2023-04-03T22:10:29.428Z,2.90
2023-04-03T22:13:53.919Z,2.80
2023-04-03T22:17:18.046Z,2.80
2023-04-03T22:20:44.698Z,2.80
2023-04-03T22:24:09.589Z,2.70
2023-04-03T22:27:34.926Z,2.70
2023-04-03T22:31:01.420Z,2.70
2023-04-03T22:34:25.175Z,2.60
2023-04-03T22:37:48.852Z,2.40
2023-04-03T22:41:12.833Z,2.30
2023-04-03T22:44:38.077Z,2.20
2023-04-03T22:48:02.151Z,2.30
2023-04-03T22:51:25.800Z,2.20
2023-04-03T22:54:49.497Z,2.30
2023-04-03T22:58:13.274Z,2.30
2023-04-03T23:01:39.647Z,2.30
2023-04-03T23:05:05.055Z,2.30
2023-04-03T23:08:29.677Z,2.20
2023-04-03T23:11:54.090Z,2.20
2023-04-03T23:15:19.441Z,2.20
2023-04-03T23:18:45.172Z,2.10
2023-04-03T23:22:09.152Z,2.10
2023-04-03T23:25:33.664Z,2.10
2023-04-03T23:28:58.334Z,2.00
2023-04-03T23:32:22.176Z,2.00
2023-04-03T23:35:48.197Z,2.10
2023-04-03T23:39:11.927Z,2.10
2023-04-03T23:42:35.579Z,2.10
2023-04-03T23:45:59.413Z,2.00
2023-04-03T23:49:23.046Z,2.00
2023-04-03T23:52:51.122Z,2.00
2023-04-03T23:56:15.640Z,1.90
2023-04-03T23:59:40.172Z,1.90
